createdAt,value
2019-05-13T00:00:06.000Z,275.09
2019-05-13T00:01:30.000Z,275.15
2019-05-13T00:03:34.000Z,275.09
2019-05-13T00:05:00.000Z,275.09
2019-05-13T00:07:08.000Z,275.09
2019-05-13T00:08:38.000Z,275.02
2019-05-13T00:10:52.000Z,275.02
2019-05-13T00:12:29.000Z,274.96
2019-05-13T00:14:42.000Z,274.77
2019-05-13T00:16:11.000Z,274.84
2019-05-13T00:18:22.000Z,274.9
2019-05-13T00:19:53.000Z,275.02
2019-05-13T00:22:04.000Z,274.96
2019-05-13T00:23:30.000Z,274.84
2019-05-13T00:25:47.000Z,274.77
2019-05-13T00:27:16.000Z,274.77
2019-05-13T00:29:24.000Z,274.71
2019-05-13T00:30:53.000Z,274.77
2019-05-13T00:34:38.000Z,274.96
2019-05-13T00:35:27.000Z,274.96
2019-05-13T00:36:56.000Z,275.02
2019-05-13T00:39:21.000Z,275.02
2019-05-13T00:40:51.000Z,274.96
2019-05-13T00:43:07.000Z,274.84
2019-05-13T00:44:34.000Z,274.77
2019-05-13T00:46:44.000Z,274.77
2019-05-13T00:48:14.000Z,274.9
2019-05-13T00:50:28.000Z,274.77
2019-05-13T00:51:56.000Z,274.77
2019-05-13T00:54:08.000Z,274.84
2019-05-13T00:55:41.000Z,274.84
2019-05-13T00:57:54.000Z,274.59
2019-05-13T00:59:23.000Z,274.52
2019-05-13T01:02:45.000Z,274.34
2019-05-13T01:04:07.000Z,274.34
2019-05-13T01:06:08.000Z,274.34
2019-05-13T01:07:30.000Z,274.21
2019-05-13T01:09:33.000Z,274.27
2019-05-13T01:10:55.000Z,274.4
2019-05-13T01:12:56.000Z,274.34
2019-05-13T01:14:18.000Z,274.27
2019-05-13T01:16:23.000Z,274.15
2019-05-13T01:17:45.000Z,274.15
2019-05-13T01:19:46.000Z,274.09
2019-05-13T01:21:10.000Z,274.09
2019-05-13T01:23:12.000Z,274.02
2019-05-13T01:24:34.000Z,274.02
2019-05-13T01:26:35.000Z,274.02
2019-05-13T01:27:57.000Z,274.09
2019-05-13T01:29:57.000Z,273.9
2019-05-13T01:33:08.000Z,273.84
2019-05-13T01:34:30.000Z,273.77
2019-05-13T01:36:32.000Z,273.77
2019-05-13T01:37:54.000Z,273.71
2019-05-13T01:39:55.000Z,273.77
2019-05-13T01:41:17.000Z,273.9
2019-05-13T01:43:19.000Z,273.9
2019-05-13T01:44:41.000Z,273.77
2019-05-13T01:46:42.000Z,273.77
2019-05-13T01:48:05.000Z,273.77
2019-05-13T01:50:07.000Z,273.77
2019-05-13T01:51:29.000Z,273.77
2019-05-13T01:53:33.000Z,273.9
2019-05-13T01:54:55.000Z,273.9
2019-05-13T01:56:56.000Z,273.77
2019-05-13T01:58:19.000Z,273.96
2019-05-13T02:00:23.000Z,273.9
2019-05-13T02:01:46.000Z,273.9
2019-05-13T02:03:48.000Z,273.77
2019-05-13T02:05:10.000Z,273.71
2019-05-13T02:07:14.000Z,273.77
2019-05-13T02:08:37.000Z,273.77
2019-05-13T02:10:39.000Z,273.77
2019-05-13T02:12:05.000Z,273.71
2019-05-13T02:14:06.000Z,273.65
2019-05-13T02:15:28.000Z,273.59
2019-05-13T02:17:30.000Z,273.46
2019-05-13T02:18:54.000Z,273.59
2019-05-13T02:20:56.000Z,273.52
2019-05-13T02:22:19.000Z,273.59
2019-05-13T02:24:20.000Z,273.59
2019-05-13T02:25:43.000Z,273.77
2019-05-13T02:27:44.000Z,273.84
2019-05-13T02:29:06.000Z,273.84
2019-05-13T02:31:08.000Z,273.9
2019-05-13T02:32:38.000Z,273.71
2019-05-13T02:34:42.000Z,273.77
2019-05-13T02:36:06.000Z,273.71
2019-05-13T02:38:10.000Z,273.71
2019-05-13T02:39:45.000Z,273.77
2019-05-13T02:41:46.000Z,273.65
2019-05-13T02:43:10.000Z,273.65
2019-05-13T02:45:14.000Z,273.52
2019-05-13T02:46:37.000Z,273.46
2019-05-13T02:48:38.000Z,273.4
2019-05-13T02:50:02.000Z,273.59
2019-05-13T02:52:05.000Z,273.52
2019-05-13T02:53:27.000Z,273.46
2019-05-13T02:55:28.000Z,273.46
2019-05-13T02:56:53.000Z,273.34
2019-05-13T02:58:56.000Z,273.4
2019-05-13T03:00:24.000Z,273.4
2019-05-13T03:02:26.000Z,273.4
2019-05-13T03:03:48.000Z,273.4
2019-05-13T03:05:51.000Z,273.21
2019-05-13T03:07:15.000Z,273.34
2019-05-13T03:09:18.000Z,273.4
2019-05-13T03:10:47.000Z,273.34
2019-05-13T03:12:54.000Z,273.15
2019-05-13T03:14:20.000Z,273.09
2019-05-13T03:16:24.000Z,272.96
2019-05-13T03:17:45.000Z,272.9
2019-05-13T03:19:47.000Z,272.96
2019-05-13T03:21:14.000Z,272.96
2019-05-13T03:23:16.000Z,273.02
2019-05-13T03:24:43.000Z,273.09
2019-05-13T03:26:45.000Z,273.09
2019-05-13T03:28:08.000Z,272.96
2019-05-13T03:30:16.000Z,272.96
2019-05-13T03:31:39.000Z,272.96
2019-05-13T03:33:46.000Z,272.77
2019-05-13T03:35:13.000Z,272.77
2019-05-13T03:37:16.000Z,272.71
2019-05-13T03:38:38.000Z,272.71
2019-05-13T03:41:05.000Z,272.71
2019-05-13T03:42:30.000Z,272.71
2019-05-13T03:44:37.000Z,272.71
2019-05-13T03:46:04.000Z,272.71
2019-05-13T03:48:06.000Z,272.96
2019-05-13T03:49:31.000Z,272.96
2019-05-13T03:51:35.000Z,272.9
2019-05-13T03:52:59.000Z,272.84
2019-05-13T03:55:05.000Z,272.71
2019-05-13T03:56:29.000Z,272.71
2019-05-13T03:58:32.000Z,272.77
2019-05-13T03:59:55.000Z,272.77
2019-05-13T04:01:59.000Z,272.77
2019-05-13T04:03:22.000Z,272.71
2019-05-13T04:05:29.000Z,272.77
2019-05-13T04:06:57.000Z,272.77
2019-05-13T04:09:12.000Z,272.77
2019-05-13T04:10:52.000Z,272.71
2019-05-13T04:12:56.000Z,272.77
2019-05-13T04:14:24.000Z,272.84
2019-05-13T04:16:29.000Z,272.9
2019-05-13T04:17:58.000Z,272.96
2019-05-13T04:20:05.000Z,272.9
2019-05-13T04:21:29.000Z,272.9
2019-05-13T04:23:39.000Z,273.02
2019-05-13T04:25:09.000Z,273.02
2019-05-13T04:27:14.000Z,273.09
2019-05-13T04:28:47.000Z,273.15
2019-05-13T04:31:00.000Z,273.15
2019-05-13T04:32:33.000Z,273.21
2019-05-13T04:34:38.000Z,273.15
2019-05-13T04:36:09.000Z,273.21
2019-05-13T04:38:18.000Z,273.27
2019-05-13T04:39:52.000Z,273.34
2019-05-13T04:42:00.000Z,273.71
2019-05-13T04:43:28.000Z,273.96
2019-05-13T04:45:38.000Z,274.21
2019-05-13T04:47:04.000Z,274.34
2019-05-13T04:49:16.000Z,274.34
2019-05-13T04:50:41.000Z,274.21
2019-05-13T04:52:50.000Z,274.09
2019-05-13T04:54:12.000Z,274.09
2019-05-13T04:56:20.000Z,274.09
2019-05-13T04:57:49.000Z,274.09
2019-05-13T04:59:55.000Z,274.15
2019-05-13T05:01:21.000Z,274.21
2019-05-13T05:03:26.000Z,274.34
2019-05-13T05:05:03.000Z,274.46
2019-05-13T05:07:15.000Z,274.65
2019-05-13T05:08:46.000Z,274.77
2019-05-13T05:10:56.000Z,274.84
2019-05-13T05:12:25.000Z,274.96
2019-05-13T05:14:33.000Z,275.21
2019-05-13T05:16:03.000Z,275.21
2019-05-13T05:18:08.000Z,275.15
2019-05-13T05:19:33.000Z,275.15
2019-05-13T05:21:38.000Z,275.09
2019-05-13T05:23:08.000Z,275.15
2019-05-13T05:25:17.000Z,275.4
2019-05-13T05:26:48.000Z,275.4
2019-05-13T05:29:01.000Z,275.65
2019-05-13T05:30:30.000Z,275.77
2019-05-13T05:32:41.000Z,275.84
2019-05-13T05:34:09.000Z,275.9
2019-05-13T05:36:22.000Z,276.09
2019-05-13T05:37:51.000Z,276.02
2019-05-13T05:40:05.000Z,276.21
2019-05-13T05:41:35.000Z,276.21
2019-05-13T05:43:42.000Z,276.27
2019-05-13T05:45:14.000Z,276.4
2019-05-13T05:47:24.000Z,276.71
2019-05-13T05:48:54.000Z,276.65
2019-05-13T05:51:05.000Z,276.77
2019-05-13T05:52:30.000Z,276.77
2019-05-13T05:54:37.000Z,276.84
2019-05-13T05:56:07.000Z,276.96
2019-05-13T05:58:25.000Z,277.15
2019-05-13T05:59:56.000Z,277.21
2019-05-13T06:02:06.000Z,277.27
2019-05-13T06:03:38.000Z,277.4
2019-05-13T06:05:51.000Z,277.59
2019-05-13T06:07:16.000Z,277.65
2019-05-13T06:09:26.000Z,277.71
2019-05-13T06:10:53.000Z,277.71
2019-05-13T06:13:07.000Z,277.84
2019-05-13T06:14:43.000Z,277.96
2019-05-13T06:16:57.000Z,278.09
2019-05-13T06:18:33.000Z,277.9
2019-05-13T06:20:42.000Z,278.09
2019-05-13T06:22:08.000Z,278.27
2019-05-13T06:25:34.000Z,278.46
2019-05-13T06:26:57.000Z,278.52
2019-05-13T06:29:00.000Z,278.52
2019-05-13T06:30:23.000Z,278.65
2019-05-13T06:32:24.000Z,278.71
2019-05-13T06:33:46.000Z,278.71
2019-05-13T06:35:47.000Z,278.77
2019-05-13T06:37:12.000Z,278.84
2019-05-13T06:39:13.000Z,278.9
2019-05-13T06:40:35.000Z,278.96
2019-05-13T06:42:36.000Z,279.09
2019-05-13T06:43:58.000Z,279.09
2019-05-13T06:46:02.000Z,279.15
2019-05-13T06:47:25.000Z,279.34
2019-05-13T06:49:26.000Z,279.59
2019-05-13T06:50:48.000Z,279.52
2019-05-13T06:52:51.000Z,279.59
2019-05-13T06:54:13.000Z,279.65
2019-05-13T06:56:13.000Z,279.71
2019-05-13T06:57:35.000Z,279.71
2019-05-13T06:59:36.000Z,279.9
2019-05-13T07:00:59.000Z,279.96
2019-05-13T07:03:03.000Z,280.15
2019-05-13T07:04:26.000Z,280.15
2019-05-13T07:06:28.000Z,280.21
2019-05-13T07:07:53.000Z,280.21
2019-05-13T07:09:54.000Z,280.09
2019-05-13T07:11:16.000Z,280.21
2019-05-13T07:13:25.000Z,280.27
2019-05-13T07:14:47.000Z,280.4
2019-05-13T07:16:51.000Z,280.52
2019-05-13T07:18:13.000Z,280.59
2019-05-13T07:20:15.000Z,280.46
2019-05-13T07:21:37.000Z,280.65
2019-05-13T07:23:44.000Z,280.77
2019-05-13T07:25:06.000Z,280.84
2019-05-13T07:27:07.000Z,280.84
2019-05-13T07:28:33.000Z,280.84
2019-05-13T07:30:36.000Z,280.77
2019-05-13T07:31:59.000Z,280.84
2019-05-13T07:34:01.000Z,280.9
2019-05-13T07:35:24.000Z,280.96
2019-05-13T07:37:25.000Z,281.09
2019-05-13T07:38:47.000Z,281.27
2019-05-13T07:40:49.000Z,281.21
2019-05-13T07:42:13.000Z,281.4
2019-05-13T07:44:14.000Z,281.34
2019-05-13T07:45:36.000Z,281.34
2019-05-13T07:47:38.000Z,281.46
2019-05-13T07:49:04.000Z,281.59
2019-05-13T07:51:05.000Z,281.65
2019-05-13T07:52:27.000Z,281.59
2019-05-13T07:54:31.000Z,281.65
2019-05-13T07:55:53.000Z,281.71
2019-05-13T07:57:55.000Z,281.71
2019-05-13T07:59:19.000Z,281.84
2019-05-13T08:01:23.000Z,281.9
2019-05-13T08:02:48.000Z,281.9
2019-05-13T08:04:54.000Z,281.84
2019-05-13T08:06:16.000Z,281.96
2019-05-13T08:08:21.000Z,281.96
2019-05-13T08:09:44.000Z,282.09
2019-05-13T08:11:47.000Z,282.15
2019-05-13T08:13:29.000Z,282.27
2019-05-13T08:15:34.000Z,282.27
2019-05-13T08:16:59.000Z,282.34
2019-05-13T08:19:06.000Z,282.52
2019-05-13T08:20:29.000Z,282.59
2019-05-13T08:22:33.000Z,282.59
2019-05-13T08:23:55.000Z,282.59
2019-05-13T08:25:58.000Z,282.71
2019-05-13T08:27:23.000Z,282.71
2019-05-13T08:29:31.000Z,282.71
2019-05-13T08:30:55.000Z,282.77
2019-05-13T08:33:02.000Z,282.9
2019-05-13T08:34:29.000Z,283.09
2019-05-13T08:36:37.000Z,283.27
2019-05-13T08:38:03.000Z,283.15
2019-05-13T08:40:08.000Z,283.15
2019-05-13T08:41:35.000Z,283.15
2019-05-13T08:43:40.000Z,283.09
2019-05-13T08:45:04.000Z,283.27
2019-05-13T08:47:05.000Z,283.46
2019-05-13T08:48:30.000Z,283.59
2019-05-13T08:50:35.000Z,283.59
2019-05-13T08:52:01.000Z,283.65
2019-05-13T08:54:06.000Z,283.59
2019-05-13T08:55:33.000Z,283.65
2019-05-13T08:57:34.000Z,283.84
2019-05-13T08:59:01.000Z,283.77
2019-05-13T09:01:03.000Z,283.96
2019-05-13T09:02:26.000Z,283.84
2019-05-13T09:04:38.000Z,283.77
2019-05-13T09:06:06.000Z,283.77
2019-05-13T09:08:18.000Z,283.9
2019-05-13T09:09:47.000Z,284.02
2019-05-13T09:11:54.000Z,284.15
2019-05-13T09:13:21.000Z,284.21
2019-05-13T09:15:27.000Z,284.15
2019-05-13T09:16:57.000Z,284.09
2019-05-13T09:19:01.000Z,283.96
2019-05-13T09:20:24.000Z,284.27
2019-05-13T09:22:29.000Z,284.52
2019-05-13T09:23:58.000Z,284.65
2019-05-13T09:26:07.000Z,284.71
2019-05-13T09:27:38.000Z,284.65
2019-05-13T09:29:46.000Z,284.59
2019-05-13T09:31:16.000Z,284.59
2019-05-13T09:33:24.000Z,284.84
2019-05-13T09:34:50.000Z,284.9
2019-05-13T09:36:53.000Z,284.9
2019-05-13T09:38:21.000Z,284.96
2019-05-13T09:40:34.000Z,285.02
2019-05-13T09:41:59.000Z,285.09
2019-05-13T09:46:11.000Z,285.34
2019-05-13T09:47:40.000Z,285.34
2019-05-13T09:49:45.000Z,285.27
2019-05-13T09:51:11.000Z,285.34
2019-05-13T09:53:23.000Z,285.46
2019-05-13T09:54:47.000Z,285.46
2019-05-13T09:56:58.000Z,285.46
2019-05-13T09:58:24.000Z,285.52
2019-05-13T10:00:38.000Z,285.65
2019-05-13T10:02:05.000Z,285.71
2019-05-13T10:04:08.000Z,285.65
2019-05-13T10:05:38.000Z,285.71
2019-05-13T10:07:42.000Z,285.65
2019-05-13T10:09:12.000Z,285.77
2019-05-13T10:11:16.000Z,285.77
2019-05-13T10:12:45.000Z,285.77
2019-05-13T10:15:20.000Z,286.02
2019-05-13T10:16:49.000Z,286.15
2019-05-13T10:18:57.000Z,286.02
2019-05-13T10:20:30.000Z,286.09
2019-05-13T10:22:42.000Z,286.21
2019-05-13T10:24:10.000Z,286.34
2019-05-13T10:26:17.000Z,286.46
2019-05-13T10:27:49.000Z,286.4
2019-05-13T10:29:56.000Z,286.34
2019-05-13T10:31:30.000Z,286.34
2019-05-13T10:33:34.000Z,286.46
2019-05-13T10:35:06.000Z,286.59
2019-05-13T10:37:12.000Z,286.46
2019-05-13T10:38:43.000Z,286.46
2019-05-13T10:40:49.000Z,286.65
2019-05-13T10:42:18.000Z,286.71
2019-05-13T10:44:30.000Z,286.71
2019-05-13T10:46:04.000Z,286.77
2019-05-13T10:48:22.000Z,286.77
2019-05-13T10:49:51.000Z,286.84
2019-05-13T10:52:04.000Z,286.9
2019-05-13T10:53:34.000Z,286.9
2019-05-13T10:57:17.000Z,287.02
2019-05-13T10:59:23.000Z,287.09
2019-05-13T11:01:29.000Z,287.09
2019-05-13T11:03:21.000Z,287.02
2019-05-13T11:04:43.000Z,286.96
2019-05-13T11:06:44.000Z,287.09
2019-05-13T11:08:06.000Z,287.21
2019-05-13T11:10:07.000Z,287.15
2019-05-13T11:11:29.000Z,287.15
2019-05-13T11:13:32.000Z,287.46
2019-05-13T11:15:16.000Z,287.46
2019-05-13T11:17:17.000Z,287.4
2019-05-13T11:18:52.000Z,287.46
2019-05-13T11:20:53.000Z,287.59
2019-05-13T11:22:15.000Z,287.52
2019-05-13T11:24:16.000Z,287.46
2019-05-13T11:25:38.000Z,287.4
2019-05-13T11:27:41.000Z,287.52
2019-05-13T11:29:03.000Z,287.65
2019-05-13T11:31:04.000Z,287.65
2019-05-13T11:32:26.000Z,287.77
2019-05-13T11:34:30.000Z,287.9
2019-05-13T11:35:53.000Z,288.09
2019-05-13T11:37:54.000Z,287.9
2019-05-13T11:39:17.000Z,287.9
2019-05-13T11:41:21.000Z,287.96
2019-05-13T11:42:44.000Z,287.96
2019-05-13T11:44:46.000Z,287.9
2019-05-13T11:46:09.000Z,287.96
2019-05-13T11:48:10.000Z,287.96
2019-05-13T11:49:33.000Z,287.96
2019-05-13T11:51:34.000Z,288.09
2019-05-13T11:52:57.000Z,288.21
2019-05-13T11:55:02.000Z,288.34
2019-05-13T11:56:25.000Z,288.21
2019-05-13T11:58:27.000Z,288.02
2019-05-13T11:59:53.000Z,288.09
2019-05-13T12:01:54.000Z,287.96
2019-05-13T12:03:17.000Z,288.09
2019-05-13T12:05:23.000Z,288.15
2019-05-13T12:06:48.000Z,288.09
2019-05-13T12:08:56.000Z,287.96
2019-05-13T12:10:19.000Z,288.09
2019-05-13T12:12:21.000Z,288.02
2019-05-13T12:13:55.000Z,288.02
2019-05-13T12:15:56.000Z,288.02
2019-05-13T12:17:20.000Z,288.15
2019-05-13T12:19:23.000Z,288.21
2019-05-13T12:20:45.000Z,288.15
2019-05-13T12:22:49.000Z,288.27
2019-05-13T12:24:12.000Z,288.34
2019-05-13T12:26:15.000Z,288.4
2019-05-13T12:27:39.000Z,288.46
2019-05-13T12:29:41.000Z,288.65
2019-05-13T12:31:04.000Z,288.52
2019-05-13T12:33:07.000Z,288.46
2019-05-13T12:34:36.000Z,288.59
2019-05-13T12:36:45.000Z,288.84
2019-05-13T12:38:08.000Z,288.71
2019-05-13T12:40:13.000Z,288.02
2019-05-13T12:41:37.000Z,288.21
2019-05-13T12:43:41.000Z,288.34
2019-05-13T12:45:03.000Z,288.59
2019-05-13T12:47:12.000Z,289.02
2019-05-13T12:48:35.000Z,289.09
2019-05-13T12:50:39.000Z,288.84
2019-05-13T12:52:04.000Z,288.84
2019-05-13T12:54:06.000Z,288.65
2019-05-13T12:55:35.000Z,288.71
2019-05-13T12:57:39.000Z,288.77
2019-05-13T12:59:07.000Z,288.96
2019-05-13T13:01:16.000Z,289.02
2019-05-13T13:02:43.000Z,289.15
2019-05-13T13:04:55.000Z,289.02
2019-05-13T13:06:35.000Z,289.21
2019-05-13T13:08:47.000Z,289.02
2019-05-13T13:10:17.000Z,289.21
2019-05-13T13:12:18.000Z,289.4
2019-05-13T13:13:58.000Z,289.27
2019-05-13T13:16:11.000Z,289.02
2019-05-13T13:17:33.000Z,289.02
2019-05-13T13:19:37.000Z,289.09
2019-05-13T13:21:06.000Z,289.09
2019-05-13T13:23:12.000Z,289.09
2019-05-13T13:24:35.000Z,289.15
2019-05-13T13:26:48.000Z,289.27
2019-05-13T13:28:14.000Z,289.27
2019-05-13T13:30:20.000Z,289.21
2019-05-13T13:31:44.000Z,289.21
2019-05-13T13:33:47.000Z,289.34
2019-05-13T13:35:17.000Z,289.34
2019-05-13T13:37:23.000Z,289.34
2019-05-13T13:38:53.000Z,289.52
2019-05-13T13:40:56.000Z,289.46
2019-05-13T13:42:22.000Z,289.46
2019-05-13T13:44:32.000Z,289.46
2019-05-13T13:45:56.000Z,289.4
2019-05-13T13:48:33.000Z,289.52
2019-05-13T13:50:01.000Z,289.65
2019-05-13T13:52:02.000Z,289.46
2019-05-13T13:53:26.000Z,289.4
2019-05-13T13:55:40.000Z,289.46
2019-05-13T13:57:08.000Z,289.46
2019-05-13T14:00:53.000Z,289.4
2019-05-13T14:01:59.000Z,289.15
2019-05-13T14:03:28.000Z,289.4
2019-05-13T14:05:38.000Z,289.59
2019-05-13T14:07:14.000Z,289.71
2019-05-13T14:09:41.000Z,289.46
2019-05-13T14:11:09.000Z,289.21
2019-05-13T14:13:19.000Z,289.4
2019-05-13T14:14:48.000Z,289.52
2019-05-13T14:16:52.000Z,289.71
2019-05-13T14:18:20.000Z,289.65
2019-05-13T14:22:15.000Z,289.65
2019-05-13T14:23:06.000Z,289.52
2019-05-13T14:24:34.000Z,289.46
2019-05-13T14:26:43.000Z,289.71
2019-05-13T14:28:08.000Z,289.65
2019-05-13T14:30:10.000Z,289.65
2019-05-13T14:31:38.000Z,289.84
2019-05-13T14:33:45.000Z,289.77
2019-05-13T14:35:14.000Z,289.84
2019-05-13T14:37:25.000Z,289.77
2019-05-13T14:38:51.000Z,290.02
2019-05-13T14:40:56.000Z,289.84
2019-05-13T14:42:23.000Z,289.84
2019-05-13T14:44:27.000Z,289.96
2019-05-13T14:45:55.000Z,290.15
2019-05-13T14:48:08.000Z,290.15
2019-05-13T14:49:40.000Z,290.02
2019-05-13T14:51:52.000Z,290.02
2019-05-13T14:53:20.000Z,290.02
2019-05-13T14:55:26.000Z,289.71
2019-05-13T14:56:59.000Z,289.96
2019-05-13T14:59:09.000Z,290.15
2019-05-13T15:00:42.000Z,290.21
2019-05-13T15:02:48.000Z,290.09
2019-05-13T15:04:18.000Z,289.9
2019-05-13T15:06:29.000Z,289.65
2019-05-13T15:08:02.000Z,289.71
2019-05-13T15:10:13.000Z,289.71
2019-05-13T15:11:43.000Z,289.9
2019-05-13T15:13:50.000Z,289.71
2019-05-13T15:15:19.000Z,289.84
2019-05-13T15:17:24.000Z,289.9
2019-05-13T15:18:53.000Z,289.65
2019-05-13T15:20:59.000Z,289.96
2019-05-13T15:22:30.000Z,289.84
2019-05-13T15:24:40.000Z,289.71
2019-05-13T15:26:12.000Z,289.65
2019-05-13T15:28:23.000Z,289.71
2019-05-13T15:29:52.000Z,290.15
2019-05-13T15:32:02.000Z,290.09
2019-05-13T15:33:32.000Z,290.02
2019-05-13T15:35:41.000Z,289.77
2019-05-13T15:37:12.000Z,289.84
2019-05-13T15:39:23.000Z,290.02
2019-05-13T15:40:56.000Z,290.09
2019-05-13T15:43:03.000Z,290.02
2019-05-13T15:44:34.000Z,290.09
2019-05-13T15:46:51.000Z,290.02
2019-05-13T15:48:20.000Z,290.15
2019-05-13T15:50:30.000Z,289.9
2019-05-13T15:52:02.000Z,289.84
2019-05-13T15:55:22.000Z,289.9
2019-05-13T15:56:44.000Z,289.9
2019-05-13T15:58:45.000Z,289.9
2019-05-13T16:00:07.000Z,289.65
2019-05-13T16:02:08.000Z,289.52
2019-05-13T16:03:31.000Z,289.84
2019-05-13T16:05:32.000Z,289.9
2019-05-13T16:06:54.000Z,289.9
2019-05-13T16:08:55.000Z,290.02
2019-05-13T16:10:17.000Z,290.02
2019-05-13T16:12:20.000Z,290.15
2019-05-13T16:13:42.000Z,290.02
2019-05-13T16:15:44.000Z,289.9
2019-05-13T16:17:09.000Z,289.71
2019-05-13T16:19:13.000Z,289.46
2019-05-13T16:20:36.000Z,289.59
2019-05-13T16:22:43.000Z,289.65
2019-05-13T16:24:07.000Z,289.77
2019-05-13T16:26:10.000Z,289.65
2019-05-13T16:27:33.000Z,289.4
2019-05-13T16:29:34.000Z,289.52
2019-05-13T16:30:56.000Z,289.59
2019-05-13T16:32:57.000Z,289.65
2019-05-13T16:34:22.000Z,289.77
2019-05-13T16:36:23.000Z,289.77
2019-05-13T16:37:45.000Z,289.77
2019-05-13T16:39:47.000Z,289.65
2019-05-13T16:41:12.000Z,289.71
2019-05-13T16:43:12.000Z,289.77
2019-05-13T16:44:35.000Z,289.59
2019-05-13T16:46:39.000Z,289.65
2019-05-13T16:48:02.000Z,289.71
2019-05-13T16:50:05.000Z,289.65
2019-05-13T16:51:29.000Z,289.65
2019-05-13T16:53:30.000Z,289.65
2019-05-13T16:54:52.000Z,289.52
2019-05-13T16:56:54.000Z,289.46
2019-05-13T16:58:16.000Z,289.59
2019-05-13T17:00:17.000Z,289.46
2019-05-13T17:01:41.000Z,289.46
2019-05-13T17:03:43.000Z,289.59
2019-05-13T17:05:05.000Z,289.84
2019-05-13T17:07:07.000Z,289.77
2019-05-13T17:08:31.000Z,289.65
2019-05-13T17:10:33.000Z,289.4
2019-05-13T17:11:55.000Z,289.34
2019-05-13T17:13:58.000Z,289.09
2019-05-13T17:15:26.000Z,288.96
2019-05-13T17:17:33.000Z,289.21
2019-05-13T17:18:59.000Z,289.21
2019-05-13T17:21:03.000Z,289.09
2019-05-13T17:22:25.000Z,288.52
2019-05-13T17:24:26.000Z,288.65
2019-05-13T17:25:52.000Z,288.77
2019-05-13T17:27:55.000Z,288.27
2019-05-13T17:29:20.000Z,287.96
2019-05-13T17:31:22.000Z,288.09
2019-05-13T17:32:44.000Z,288.27
2019-05-13T17:34:45.000Z,287.9
2019-05-13T17:36:07.000Z,287.77
2019-05-13T17:38:12.000Z,287.71
2019-05-13T17:39:38.000Z,287.84
2019-05-13T17:41:40.000Z,287.59
2019-05-13T17:43:02.000Z,287.46
2019-05-13T17:45:08.000Z,287.46
2019-05-13T17:46:32.000Z,287.46
2019-05-13T17:48:33.000Z,287.34
2019-05-13T17:49:56.000Z,287.27
2019-05-13T17:52:00.000Z,287.21
2019-05-13T17:53:22.000Z,287.09
2019-05-13T17:55:23.000Z,286.96
2019-05-13T17:56:46.000Z,286.96
2019-05-13T17:58:48.000Z,286.71
2019-05-13T18:00:12.000Z,286.4
2019-05-13T18:02:19.000Z,286.27
2019-05-13T18:03:47.000Z,286.46
2019-05-13T18:05:51.000Z,286.52
2019-05-13T18:07:18.000Z,286.52
2019-05-13T18:09:26.000Z,286.34
2019-05-13T18:10:49.000Z,286.09
2019-05-13T18:12:52.000Z,286.15
2019-05-13T18:14:18.000Z,286.21
2019-05-13T18:16:25.000Z,286.02
2019-05-13T18:17:49.000Z,286.09
2019-05-13T18:19:54.000Z,285.77
2019-05-13T18:21:18.000Z,285.52
2019-05-13T18:23:21.000Z,285.46
2019-05-13T18:24:46.000Z,285.52
2019-05-13T18:26:51.000Z,285.46
2019-05-13T18:28:20.000Z,285.59
2019-05-13T18:30:34.000Z,285.34
2019-05-13T18:31:56.000Z,285.21
2019-05-13T18:34:01.000Z,285.02
2019-05-13T18:35:28.000Z,285.09
2019-05-13T18:37:35.000Z,285.15
2019-05-13T18:38:57.000Z,285.21
2019-05-13T18:41:08.000Z,285.09
2019-05-13T18:42:40.000Z,285.15
2019-05-13T18:44:46.000Z,284.96
2019-05-13T18:46:13.000Z,284.71
2019-05-13T18:48:23.000Z,284.52
2019-05-13T18:49:49.000Z,284.4
2019-05-13T18:52:01.000Z,284.15
2019-05-13T18:53:25.000Z,283.96
2019-05-13T18:55:33.000Z,284.09
2019-05-13T18:56:58.000Z,283.96
2019-05-13T19:00:36.000Z,283.71
2019-05-13T19:01:36.000Z,283.46
2019-05-13T19:03:06.000Z,283.15
2019-05-13T19:05:09.000Z,282.9
2019-05-13T19:06:34.000Z,282.84
2019-05-13T19:08:40.000Z,283.09
2019-05-13T19:10:07.000Z,283.02
2019-05-13T19:12:22.000Z,282.59
2019-05-13T19:13:50.000Z,282.4
2019-05-13T19:15:53.000Z,282.15
2019-05-13T19:17:23.000Z,282.21
2019-05-13T19:19:33.000Z,281.96
2019-05-13T19:20:58.000Z,281.84
2019-05-13T19:23:07.000Z,281.65
2019-05-13T19:24:43.000Z,281.65
2019-05-13T19:26:53.000Z,281.4
2019-05-13T19:28:25.000Z,281.4
2019-05-13T19:30:33.000Z,281.27
2019-05-13T19:31:57.000Z,281.52
2019-05-13T19:34:12.000Z,281.27
2019-05-13T19:35:40.000Z,281.15
2019-05-13T19:37:49.000Z,280.9
2019-05-13T19:39:22.000Z,280.96
2019-05-13T19:41:29.000Z,280.46
2019-05-13T19:42:55.000Z,280.34
2019-05-13T19:45:01.000Z,280.21
2019-05-13T19:46:37.000Z,280.15
2019-05-13T19:48:50.000Z,280.21
2019-05-13T19:50:18.000Z,280.15
2019-05-13T19:52:27.000Z,279.96
2019-05-13T19:54:00.000Z,279.84
2019-05-13T19:56:08.000Z,279.77
2019-05-13T19:57:39.000Z,279.84
2019-05-13T19:59:52.000Z,279.71
2019-05-13T20:01:20.000Z,279.65
2019-05-13T20:03:30.000Z,279.59
2019-05-13T20:05:00.000Z,279.52
2019-05-13T20:07:10.000Z,279.4
2019-05-13T20:08:36.000Z,279.46
2019-05-13T20:10:56.000Z,279.46
2019-05-13T20:12:26.000Z,279.34
2019-05-13T20:14:34.000Z,279.27
2019-05-13T20:16:02.000Z,279.4
2019-05-13T20:18:16.000Z,279.15
2019-05-13T20:19:47.000Z,279.34
2019-05-13T20:22:06.000Z,279.21
2019-05-13T20:23:36.000Z,279.15
2019-05-13T20:27:20.000Z,278.9
2019-05-13T20:28:09.000Z,278.9
2019-05-13T20:29:40.000Z,278.59
2019-05-13T20:31:50.000Z,278.52
2019-05-13T20:33:20.000Z,278.59
2019-05-13T20:37:28.000Z,278.46
2019-05-13T20:38:52.000Z,278.27
2019-05-13T20:40:53.000Z,278.15
2019-05-13T20:42:15.000Z,278.15
2019-05-13T20:44:16.000Z,278.27
2019-05-13T20:45:38.000Z,278.59
2019-05-13T20:47:41.000Z,278.46
2019-05-13T20:49:02.000Z,278.34
2019-05-13T20:51:03.000Z,278.15
2019-05-13T20:52:25.000Z,278.21
2019-05-13T20:54:26.000Z,277.9
2019-05-13T20:55:52.000Z,277.77
2019-05-13T20:57:53.000Z,277.84
2019-05-13T20:59:16.000Z,277.77
2019-05-13T21:01:17.000Z,277.65
2019-05-13T21:02:39.000Z,277.71
2019-05-13T21:04:41.000Z,277.59
2019-05-13T21:06:03.000Z,277.46
2019-05-13T21:08:04.000Z,277.4
2019-05-13T21:09:26.000Z,277.34
2019-05-13T21:11:27.000Z,277.27
2019-05-13T21:12:51.000Z,277.34
2019-05-13T21:14:53.000Z,277.21
2019-05-13T21:16:15.000Z,277.21
2019-05-13T21:18:17.000Z,277.46
2019-05-13T21:19:42.000Z,277.34
2019-05-13T21:21:43.000Z,277.21
2019-05-13T21:23:05.000Z,277.15
2019-05-13T21:25:06.000Z,277.15
2019-05-13T21:26:28.000Z,276.9
2019-05-13T21:28:31.000Z,277.02
2019-05-13T21:29:53.000Z,277.02
2019-05-13T21:31:54.000Z,277.02
2019-05-13T21:33:16.000Z,277.02
2019-05-13T21:35:17.000Z,276.84
2019-05-13T21:36:41.000Z,276.84
2019-05-13T21:38:44.000Z,276.84
2019-05-13T21:40:06.000Z,276.96
2019-05-13T21:42:07.000Z,276.9
2019-05-13T21:43:31.000Z,276.9
2019-05-13T21:45:32.000Z,276.77
2019-05-13T21:46:55.000Z,276.9
2019-05-13T21:48:57.000Z,276.71
2019-05-13T21:50:21.000Z,276.84
2019-05-13T21:52:37.000Z,276.71
2019-05-13T21:54:04.000Z,276.71
2019-05-13T21:56:05.000Z,276.77
2019-05-13T21:57:28.000Z,276.71
2019-05-13T21:59:33.000Z,276.46
2019-05-13T22:00:57.000Z,276.4
2019-05-13T22:03:01.000Z,276.46
2019-05-13T22:04:23.000Z,276.65
2019-05-13T22:06:27.000Z,276.34
2019-05-13T22:07:50.000Z,276.27
2019-05-13T22:09:52.000Z,276.15
2019-05-13T22:11:16.000Z,276.15
2019-05-13T22:13:18.000Z,276.09
2019-05-13T22:14:42.000Z,276.02
2019-05-13T22:16:45.000Z,275.96
2019-05-13T22:18:09.000Z,275.96
2019-05-13T22:20:12.000Z,276.02
2019-05-13T22:21:36.000Z,275.96
2019-05-13T22:23:39.000Z,276.09